Time;durP1;ratioP1;P1;durP2;ratioP2;P2;SDS_P1;SDS_P2;PMS_P1;PMS_P2;Temp;Humidity;BMP_temperature;BMP_pressure;BME280_temperature;BME280_humidity;BME280_pressure;Samples;Min_cycle;Max_cycle;Signal;HPM_P1;HPM_P2
2021/11/29 00:00:13;;;;;;;6.90;3.55;;;1.40;99.90;;;;;;5067462;28;20468;-43
2021/11/29 00:02:41;;;;;;;7.15;3.63;;;1.40;99.90;;;;;;5066932;28;20054;-44
2021/11/29 00:05:07;;;;;;;6.85;3.50;;;1.40;99.90;;;;;;5066281;28;20043;-43
2021/11/29 00:07:33;;;;;;;4.13;3.08;;;1.50;99.90;;;;;;5067143;28;20024;-43
2021/11/29 00:09:58;;;;;;;7.38;3.75;;;1.60;99.90;;;;;;5066382;28;20021;-42
2021/11/29 00:12:24;;;;;;;5.88;3.75;;;1.60;99.90;;;;;;5066005;28;20024;-42
2021/11/29 00:14:49;;;;;;;4.15;3.15;;;1.70;99.90;;;;;;5066760;28;20024;-42
2021/11/29 00:17:15;;;;;;;10.57;2.95;;;1.70;99.90;;;;;;5067502;28;20020;-42
2021/11/29 00:19:41;;;;;;;5.25;2.92;;;1.80;99.90;;;;;;5064969;28;20048;-42
2021/11/29 00:22:07;;;;;;;4.25;2.13;;;1.80;99.90;;;;;;5066824;28;20753;-42
2021/11/29 00:24:33;;;;;;;4.75;2.08;;;1.90;99.90;;;;;;5066778;28;20071;-42
2021/11/29 00:26:58;;;;;;;4.13;2.30;;;2.00;99.90;;;;;;5066436;28;20025;-43
2021/11/29 00:29:24;;;;;;;5.05;2.20;;;2.10;99.90;;;;;;5067071;28;20025;-43
2021/11/29 00:31:49;;;;;;;4.60;2.17;;;2.10;99.90;;;;;;5066530;28;20548;-42
2021/11/29 00:34:15;;;;;;;4.63;2.50;;;2.20;99.90;;;;;;5065738;28;20029;-43
2021/11/29 00:36:40;;;;;;;2.78;1.60;;;2.20;99.90;;;;;;5066628;28;20446;-43
2021/11/29 00:39:06;;;;;;;3.75;1.80;;;2.30;99.90;;;;;;5066494;28;20536;-43
2021/11/29 00:41:32;;;;;;;3.25;1.52;;;2.30;99.90;;;;;;5066152;28;20024;-43
2021/11/29 00:43:57;;;;;;;2.38;1.40;;;2.30;99.90;;;;;;5066376;28;20067;-43
2021/11/29 00:46:23;;;;;;;2.83;1.27;;;2.30;99.90;;;;;;5066532;28;20024;-43
2021/11/29 00:48:48;;;;;;;1.90;1.15;;;2.30;99.90;;;;;;5066010;28;20028;-43
2021/11/29 00:51:14;;;;;;;1.40;0.90;;;2.30;99.90;;;;;;5066574;28;20021;-44
2021/11/29 00:53:39;;;;;;;2.33;1.00;;;2.20;99.90;;;;;;5066174;28;20070;-43
2021/11/29 00:56:05;;;;;;;1.70;0.93;;;2.10;99.90;;;;;;5066280;28;20048;-42
2021/11/29 00:58:30;;;;;;;2.10;1.00;;;2.10;99.90;;;;;;5066213;28;20115;-42
2021/11/29 01:00:57;;;;;;;1.70;0.90;;;2.00;99.90;;;;;;5065482;28;20028;-43
2021/11/29 01:03:22;;;;;;;1.40;0.95;;;2.00;99.90;;;;;;5066484;28;20101;-42
2021/11/29 01:05:48;;;;;;;2.05;1.10;;;2.00;99.90;;;;;;5066356;28;20376;-43
2021/11/29 01:08:16;;;;;;;1.50;0.90;;;1.90;99.90;;;;;;5066213;28;20029;-42
2021/11/29 01:10:42;;;;;;;1.63;0.98;;;1.80;99.90;;;;;;5065794;28;20039;-42
2021/11/29 01:13:07;;;;;;;1.35;0.75;;;1.80;99.90;;;;;;5066047;28;20033;-42
2021/11/29 01:15:35;;;;;;;1.15;0.80;;;1.70;99.90;;;;;;5065588;28;20027;-42
2021/11/29 01:18:07;;;;;;;1.50;0.60;;;1.70;99.90;;;;;;5066240;28;20024;-43
2021/11/29 01:20:34;;;;;;;1.40;0.52;;;1.70;99.90;;;;;;5065865;28;20419;-42
2021/11/29 01:23:00;;;;;;;1.33;0.90;;;1.70;99.90;;;;;;5065339;28;20472;-42
2021/11/29 01:25:25;;;;;;;1.50;0.70;;;1.70;99.90;;;;;;5065972;28;20055;-43
2021/11/29 01:27:51;;;;;;;1.50;0.52;;;1.60;99.90;;;;;;5066325;28;20724;-43
2021/11/29 01:30:17;;;;;;;1.38;0.60;;;1.70;99.90;;;;;;5066239;28;20048;-43
2021/11/29 01:32:43;;;;;;;1.60;0.70;;;1.70;99.90;;;;;;5069947;28;20036;-43
2021/11/29 01:35:09;;;;;;;1.63;0.70;;;1.70;99.90;;;;;;5069402;28;20111;-42
2021/11/29 01:37:35;;;;;;;1.77;0.70;;;1.70;99.90;;;;;;5069385;28;20086;-43
2021/11/29 01:40:03;;;;;;;0.50;0.50;;;1.70;99.90;;;;;;5069661;28;20547;-43
2021/11/29 01:42:29;;;;;;;2.83;0.73;;;1.80;99.90;;;;;;5069224;28;20056;-43
2021/11/29 01:44:56;;;;;;;1.83;0.65;;;1.80;99.90;;;;;;5069381;28;20068;-43
2021/11/29 01:47:23;;;;;;;2.10;0.90;;;1.80;99.90;;;;;;5069122;28;20046;-43
2021/11/29 01:49:48;;;;;;;4.03;1.13;;;1.80;99.90;;;;;;5069346;28;20111;-41
2021/11/29 01:52:14;;;;;;;3.10;0.90;;;1.80;99.90;;;;;;5069201;28;20103;-42
2021/11/29 01:54:40;;;;;;;1.95;0.70;;;1.80;99.90;;;;;;5069662;28;20016;-44
2021/11/29 01:57:05;;;;;;;1.65;0.70;;;1.80;99.90;;;;;;5068320;28;20511;-42
2021/11/29 01:59:31;;;;;;;1.45;0.77;;;1.70;99.90;;;;;;5068926;28;20025;-42
2021/11/29 02:01:57;;;;;;;4.68;1.00;;;1.80;99.90;;;;;;5069149;28;20021;-43
2021/11/29 02:04:22;;;;;;;1.75;0.75;;;1.80;99.90;;;;;;5068171;28;20049;-43
2021/11/29 02:06:51;;;;;;;5.47;1.50;;;1.70;99.90;;;;;;5069500;28;20095;-42
2021/11/29 02:09:17;;;;;;;1.27;0.80;;;1.70;99.90;;;;;;5069495;28;20028;-43
2021/11/29 02:11:42;;;;;;;1.75;1.00;;;1.70;99.90;;;;;;5067907;28;20052;-43
2021/11/29 02:14:08;;;;;;;1.85;1.10;;;1.70;99.90;;;;;;5069068;28;20074;-43
2021/11/29 02:16:34;;;;;;;3.28;0.93;;;1.80;99.90;;;;;;5069119;28;20040;-43
2021/11/29 02:19:01;;;;;;;2.25;1.45;;;1.70;99.90;;;;;;5068019;28;20033;-42
2021/11/29 02:21:31;;;;;;;5.20;1.27;;;1.70;99.90;;;;;;5068582;28;20754;-42
2021/11/29 02:24:03;;;;;;;1.60;0.80;;;1.70;99.90;;;;;;5067580;28;20040;-43
2021/11/29 02:26:32;;;;;;;1.08;0.75;;;1.70;99.90;;;;;;5068264;28;20085;-43
2021/11/29 02:29:02;;;;;;;1.23;0.70;;;1.70;99.90;;;;;;5068351;28;20021;-43
2021/11/29 02:31:35;;;;;;;2.60;0.80;;;1.70;99.90;;;;;;5068847;28;20507;-43
2021/11/29 02:34:07;;;;;;;2.83;0.93;;;1.70;99.90;;;;;;5068353;28;20090;-43
2021/11/29 02:36:33;;;;;;;2.47;0.90;;;1.60;99.90;;;;;;5068190;28;20506;-42
2021/11/29 02:38:58;;;;;;;2.00;0.75;;;1.60;99.90;;;;;;5068086;28;20020;-42
2021/11/29 02:41:24;;;;;;;0.73;0.70;;;1.60;99.90;;;;;;5068070;28;20035;-43
2021/11/29 02:43:49;;;;;;;2.58;0.73;;;1.60;99.90;;;;;;5067469;28;20042;-44
2021/11/29 02:46:15;;;;;;;2.00;0.77;;;1.60;99.90;;;;;;5068260;28;20019;-43
2021/11/29 02:48:47;;;;;;;0.68;0.50;;;1.50;99.90;;;;;;5068337;28;20112;-42
2021/11/29 02:51:36;;;;;;;0.40;0.40;;;1.50;99.90;;;;;;5068443;28;20060;-42
2021/11/29 02:54:06;;;;;;;5.10;0.88;;;1.50;99.90;;;;;;5067211;28;20578;-42
2021/11/29 02:56:36;;;;;;;1.58;0.70;;;1.50;99.90;;;;;;5068161;28;20031;-43
2021/11/29 02:59:03;;;;;;;2.60;0.70;;;1.50;99.90;;;;;;5068311;28;20112;-43
2021/11/29 03:01:29;;;;;;;1.63;0.60;;;1.50;99.90;;;;;;5067112;28;20028;-43
2021/11/29 03:03:54;;;;;;;1.65;0.70;;;1.40;99.90;;;;;;5068123;28;20035;-42
2021/11/29 03:06:21;;;;;;;1.13;0.80;;;1.40;99.90;;;;;;5068469;28;20028;-43
2021/11/29 03:08:47;;;;;;;1.30;0.70;;;1.40;99.90;;;;;;5067262;28;20066;-43
2021/11/29 03:11:17;;;;;;;2.22;0.90;;;1.40;99.90;;;;;;5068213;28;20040;-43
2021/11/29 03:13:43;;;;;;;3.45;0.80;;;1.40;99.90;;;;;;5067567;28;20107;-44
2021/11/29 03:16:10;;;;;;;1.58;0.60;;;1.40;99.90;;;;;;5067078;28;20036;-43
2021/11/29 03:18:38;;;;;;;1.48;0.73;;;1.40;99.90;;;;;;5067829;28;20028;-43
2021/11/29 03:21:05;;;;;;;2.10;0.85;;;1.40;99.90;;;;;;5067775;28;20031;-42
2021/11/29 03:23:31;;;;;;;1.13;0.63;;;1.40;99.90;;;;;;5067311;28;20055;-42
2021/11/29 03:25:58;;;;;;;3.15;0.82;;;1.40;99.90;;;;;;5067103;28;20020;-42
2021/11/29 03:28:23;;;;;;;0.70;0.50;;;1.40;99.90;;;;;;5066843;28;20486;-42
2021/11/29 03:30:49;;;;;;;0.50;0.40;;;1.40;99.90;;;;;;5067384;28;20066;-43
2021/11/29 03:33:15;;;;;;;1.45;0.50;;;1.40;99.90;;;;;;5068355;28;20020;-42
2021/11/29 03:35:41;;;;;;;0.98;0.60;;;1.40;99.90;;;;;;5066758;28;20730;-44
2021/11/29 03:38:08;;;;;;;1.58;0.80;;;1.30;99.90;;;;;;5067289;28;20097;-43
2021/11/29 03:40:36;;;;;;;0.70;0.60;;;1.30;99.90;;;;;;5067695;28;20017;-42
2021/11/29 03:43:02;;;;;;;1.02;0.70;;;1.30;99.90;;;;;;5066819;28;20037;-43
2021/11/29 03:45:27;;;;;;;0.60;0.50;;;1.30;99.90;;;;;;5067012;28;20028;-42
2021/11/29 03:47:53;;;;;;;1.38;0.73;;;1.30;99.90;;;;;;5067100;28;20044;-43
2021/11/29 03:50:18;;;;;;;1.25;0.60;;;1.30;99.90;;;;;;5066926;28;20090;-44
2021/11/29 03:52:44;;;;;;;0.90;0.60;;;1.40;99.90;;;;;;5066952;28;20077;-43
2021/11/29 03:55:09;;;;;;;4.13;0.98;;;1.30;99.90;;;;;;5067250;28;20028;-43
2021/11/29 03:57:35;;;;;;;1.75;0.80;;;1.30;99.90;;;;;;5054970;28;20041;-44
2021/11/29 04:00:01;;;;;;;1.92;0.70;;;1.30;99.90;;;;;;5067214;28;20472;-42
2021/11/29 04:02:27;;;;;;;2.17;0.70;;;1.30;99.90;;;;;;5066770;28;20476;-43
2021/11/29 04:04:52;;;;;;;2.08;0.65;;;1.30;99.90;;;;;;5066646;28;20068;-42
2021/11/29 04:07:19;;;;;;;0.70;0.70;;;1.30;99.90;;;;;;5066768;28;20056;-43
2021/11/29 04:09:44;;;;;;;1.85;0.75;;;1.30;99.90;;;;;;5067106;28;20044;-43
2021/11/29 04:12:10;;;;;;;2.35;0.65;;;1.30;99.90;;;;;;5066464;28;20110;-43
2021/11/29 04:14:35;;;;;;;1.50;0.85;;;1.30;99.90;;;;;;5066679;28;20021;-45
2021/11/29 04:17:02;;;;;;;1.90;1.00;;;1.30;99.90;;;;;;5066596;28;20017;-44
2021/11/29 04:19:28;;;;;;;1.83;0.82;;;1.30;99.90;;;;;;5065596;28;20156;-43
2021/11/29 04:21:54;;;;;;;1.55;1.10;;;1.30;99.90;;;;;;5066801;28;20032;-43
2021/11/29 04:24:20;;;;;;;1.58;1.20;;;1.30;99.90;;;;;;5066897;28;20119;-43
2021/11/29 04:26:51;;;;;;;1.38;1.13;;;1.30;99.90;;;;;;5066098;28;20043;-43
2021/11/29 04:29:20;;;;;;;2.13;1.38;;;1.30;99.90;;;;;;5067059;28;20032;-42
2021/11/29 04:31:46;;;;;;;3.25;1.20;;;1.30;99.90;;;;;;5066201;28;20024;-43
2021/11/29 04:34:12;;;;;;;1.30;1.13;;;1.30;99.90;;;;;;5066561;28;20071;-43
2021/11/29 04:36:37;;;;;;;3.15;1.80;;;1.20;99.90;;;;;;5066846;28;20376;-42
2021/11/29 04:39:04;;;;;;;2.38;1.15;;;1.30;99.90;;;;;;5065811;28;20222;-43
2021/11/29 04:41:30;;;;;;;5.85;1.40;;;1.20;99.90;;;;;;5066581;28;20062;-43
2021/11/29 04:43:55;;;;;;;1.95;1.23;;;1.20;99.90;;;;;;5066683;28;20314;-43
2021/11/29 04:46:21;;;;;;;4.70;1.48;;;1.20;99.90;;;;;;5065903;28;20711;-44
2021/11/29 04:48:47;;;;;;;2.30;1.65;;;1.30;99.90;;;;;;5066661;28;20025;-43
2021/11/29 04:51:12;;;;;;;2.72;1.60;;;1.30;99.90;;;;;;5066914;28;20545;-43
2021/11/29 04:53:41;;;;;;;3.83;1.58;;;1.30;99.90;;;;;;5065503;28;20040;-42
2021/11/29 04:56:06;;;;;;;2.22;1.60;;;1.30;99.90;;;;;;5066387;28;20021;-43
2021/11/29 04:58:32;;;;;;;2.15;1.70;;;1.30;99.90;;;;;;5066655;28;20024;-42
2021/11/29 05:00:58;;;;;;;2.55;1.45;;;1.30;99.90;;;;;;5065482;28;20017;-43
2021/11/29 05:03:24;;;;;;;4.65;1.52;;;1.30;99.90;;;;;;5065510;28;20081;-43
2021/11/29 05:05:49;;;;;;;2.38;1.50;;;1.30;99.90;;;;;;5067992;28;20047;-43
2021/11/29 05:08:15;;;;;;;4.80;1.77;;;1.30;99.90;;;;;;5069878;28;20032;-42
2021/11/29 05:10:40;;;;;;;2.53;1.30;;;1.30;99.90;;;;;;5070302;28;20032;-43
2021/11/29 05:13:06;;;;;;;2.97;1.30;;;1.30;99.90;;;;;;5070388;28;20025;-44
2021/11/29 05:15:32;;;;;;;1.92;1.35;;;1.40;99.90;;;;;;5069101;28;20709;-43
2021/11/29 05:17:57;;;;;;;1.67;1.27;;;1.40;99.90;;;;;;5069978;28;20024;-43
2021/11/29 05:20:23;;;;;;;2.65;1.40;;;1.50;99.90;;;;;;5069840;28;20123;-42
2021/11/29 05:22:49;;;;;;;2.00;1.40;;;1.50;99.90;;;;;;5069609;28;20499;-42
2021/11/29 05:25:15;;;;;;;3.25;1.50;;;1.50;99.90;;;;;;5070127;28;20512;-43
2021/11/29 05:27:40;;;;;;;2.95;1.52;;;1.50;99.90;;;;;;5069644;28;20025;-43
2021/11/29 05:30:07;;;;;;;2.90;1.30;;;1.50;99.90;;;;;;5068241;28;20591;-42
2021/11/29 05:32:33;;;;;;;2.05;1.40;;;1.40;99.90;;;;;;5069854;28;20059;-43
2021/11/29 05:34:58;;;;;;;3.22;1.13;;;1.40;99.90;;;;;;5068951;28;20476;-43
2021/11/29 05:37:24;;;;;;;1.52;1.30;;;1.40;99.90;;;;;;5070336;28;20078;-43
2021/11/29 05:39:51;;;;;;;1.50;1.20;;;1.40;99.90;;;;;;5069304;28;20035;-42
2021/11/29 05:42:17;;;;;;;1.67;1.30;;;1.40;99.90;;;;;;5069232;28;20024;-43
2021/11/29 05:44:42;;;;;;;2.58;1.00;;;1.40;99.90;;;;;;5069532;28;20212;-43
2021/11/29 05:47:08;;;;;;;2.90;1.10;;;1.40;99.90;;;;;;5069649;28;20449;-43
2021/11/29 05:49:34;;;;;;;3.47;1.45;;;1.40;99.90;;;;;;5068674;28;20024;-43
2021/11/29 05:52:00;;;;;;;1.00;1.00;;;1.30;99.90;;;;;;5069660;28;20094;-43
2021/11/29 05:54:26;;;;;;;3.40;1.50;;;1.30;99.90;;;;;;5069141;28;20067;-43
2021/11/29 05:56:52;;;;;;;4.47;1.33;;;1.30;99.90;;;;;;5068478;28;20511;-43
2021/11/29 05:59:20;;;;;;;1.48;1.20;;;1.30;99.90;;;;;;5069784;28;20024;-42
2021/11/29 06:01:46;;;;;;;1.77;1.30;;;1.30;99.90;;;;;;5058161;28;20032;-42
2021/11/29 06:04:12;;;;;;;2.17;1.10;;;1.30;99.90;;;;;;5068541;28;20025;-43
2021/11/29 06:06:37;;;;;;;4.15;1.30;;;1.30;99.90;;;;;;5069551;28;20021;-44
2021/11/29 06:09:03;;;;;;;4.30;1.30;;;1.30;99.90;;;;;;5069232;28;20155;-42
2021/11/29 06:11:28;;;;;;;1.65;1.30;;;1.30;99.90;;;;;;5067061;28;20012;-42
2021/11/29 06:13:54;;;;;;;2.45;1.30;;;1.30;99.90;;;;;;5069324;28;20078;-42
2021/11/29 06:16:19;;;;;;;3.80;1.50;;;1.30;99.90;;;;;;5052548;28;20635;-42
2021/11/29 06:18:45;;;;;;;2.08;1.30;;;1.30;99.90;;;;;;5067275;28;20522;-42
2021/11/29 06:21:10;;;;;;;3.13;1.60;;;1.20;99.90;;;;;;5067777;28;20028;-43
2021/11/29 06:23:37;;;;;;;2.17;1.60;;;1.30;99.90;;;;;;5067030;28;20037;-42
2021/11/29 06:26:04;;;;;;;6.18;1.92;;;1.30;99.90;;;;;;5066015;28;20027;-42
2021/11/29 06:28:30;;;;;;;3.78;2.03;;;1.20;99.90;;;;;;5068302;28;20021;-42
2021/11/29 06:30:55;;;;;;;3.63;1.80;;;1.30;99.90;;;;;;5067745;28;20016;-42
2021/11/29 06:33:21;;;;;;;3.90;2.03;;;1.40;99.90;;;;;;5068090;28;20027;-43
2021/11/29 06:35:47;;;;;;;5.10;1.80;;;1.40;99.90;;;;;;5067730;28;20017;-43
2021/11/29 06:38:13;;;;;;;3.97;2.17;;;1.40;99.90;;;;;;5067597;28;20056;-41
2021/11/29 06:40:38;;;;;;;5.65;2.20;;;1.40;99.90;;;;;;5066764;28;20044;-45
2021/11/29 06:43:05;;;;;;;4.15;2.30;;;1.40;99.90;;;;;;5066908;28;20028;-42
2021/11/29 06:45:31;;;;;;;1.88;1.73;;;1.40;99.90;;;;;;5067188;28;20020;-44
2021/11/29 06:47:57;;;;;;;2.80;1.63;;;1.40;99.90;;;;;;5067632;28;20028;-44
2021/11/29 06:50:22;;;;;;;1.75;1.55;;;1.50;99.90;;;;;;5067714;28;20033;-43
2021/11/29 06:52:49;;;;;;;3.15;1.77;;;1.50;99.90;;;;;;5066817;28;20353;-42
2021/11/29 06:55:16;;;;;;;3.75;1.88;;;1.60;99.90;;;;;;5068054;28;20025;-42
2021/11/29 06:57:45;;;;;;;7.22;2.38;;;1.60;99.90;;;;;;5066990;28;20378;-42
2021/11/29 07:00:13;;;;;;;3.80;2.08;;;1.70;99.90;;;;;;5066904;28;20024;-43
2021/11/29 07:02:43;;;;;;;2.40;1.88;;;1.80;99.90;;;;;;5067466;28;20016;-43
2021/11/29 07:05:10;;;;;;;5.25;2.08;;;1.90;99.90;;;;;;5066795;28;20047;-41
2021/11/29 07:07:36;;;;;;;2.65;1.75;;;1.90;99.90;;;;;;5066820;28;20024;-44
2021/11/29 07:10:03;;;;;;;2.75;1.80;;;2.00;99.90;;;;;;5066894;28;20109;-43
2021/11/29 07:12:29;;;;;;;4.35;2.05;;;2.00;99.90;;;;;;5066924;28;20029;-42
2021/11/29 07:14:55;;;;;;;4.50;2.10;;;2.00;99.90;;;;;;5066755;28;20486;-43
2021/11/29 07:17:20;;;;;;;4.88;2.33;;;2.00;99.90;;;;;;5067264;28;20173;-43
2021/11/29 07:19:52;;;;;;;2.50;2.03;;;2.10;99.90;;;;;;5067781;28;20167;-42
2021/11/29 07:22:19;;;;;;;4.05;2.40;;;2.10;99.90;;;;;;5067350;28;20036;-42
2021/11/29 07:24:45;;;;;;;5.57;2.33;;;2.20;99.90;;;;;;5065430;28;20032;-42
2021/11/29 07:27:10;;;;;;;7.18;2.55;;;2.20;99.90;;;;;;5066450;28;20028;-43
2021/11/29 07:29:36;;;;;;;3.97;2.10;;;2.20;99.90;;;;;;5054803;28;20024;-44
2021/11/29 07:32:02;;;;;;;3.67;2.35;;;2.30;99.90;;;;;;5067856;28;20425;-43
2021/11/29 07:34:27;;;;;;;4.38;2.33;;;2.30;99.90;;;;;;5067017;28;20036;-43
2021/11/29 07:36:53;;;;;;;4.05;2.40;;;2.40;99.90;;;;;;5067178;28;20096;-43
2021/11/29 07:39:18;;;;;;;3.40;2.75;;;2.40;99.90;;;;;;5067809;28;20021;-42
2021/11/29 07:41:44;;;;;;;4.40;1.90;;;2.40;99.90;;;;;;5066624;28;20421;-43
2021/11/29 07:44:09;;;;;;;2.95;1.80;;;2.30;99.90;;;;;;5066399;28;20072;-43
2021/11/29 07:46:35;;;;;;;6.55;2.70;;;2.30;99.90;;;;;;5054201;28;20028;-43
2021/11/29 07:49:01;;;;;;;4.15;2.10;;;2.30;99.90;;;;;;5060966;28;20040;-43
2021/11/29 07:51:28;;;;;;;3.17;2.00;;;2.30;99.90;;;;;;5066909;28;20024;-44
2021/11/29 07:53:53;;;;;;;7.38;1.92;;;2.30;99.90;;;;;;5066931;28;20060;-44
2021/11/29 07:56:19;;;;;;;3.72;1.70;;;2.40;99.90;;;;;;5067032;28;20154;-43
2021/11/29 07:58:45;;;;;;;5.18;1.77;;;2.50;99.90;;;;;;5066641;28;20032;-43
2021/11/29 08:01:11;;;;;;;4.38;1.73;;;2.50;99.90;;;;;;5067259;28;20029;-43
2021/11/29 08:03:38;;;;;;;6.25;1.95;;;2.60;99.90;;;;;;5066240;28;20029;-44
2021/11/29 08:06:03;;;;;;;4.80;1.90;;;2.70;99.90;;;;;;5066579;28;20060;-43
2021/11/29 08:08:29;;;;;;;3.33;1.70;;;2.70;99.90;;;;;;5066924;28;20052;-44
2021/11/29 08:10:54;;;;;;;3.22;1.75;;;2.80;99.90;;;;;;5066498;28;20023;-43
2021/11/29 08:13:20;;;;;;;3.72;1.90;;;2.80;99.90;;;;;;5066971;28;20161;-43
2021/11/29 08:15:46;;;;;;;5.68;2.13;;;2.90;99.90;;;;;;5066688;28;20024;-42
2021/11/29 08:18:12;;;;;;;3.97;1.88;;;2.90;99.90;;;;;;5066017;28;20074;-43
2021/11/29 08:20:38;;;;;;;5.82;1.63;;;3.00;99.90;;;;;;5066522;28;20048;-43
2021/11/29 08:23:03;;;;;;;3.42;1.67;;;3.00;99.90;;;;;;5066953;28;20032;-42
2021/11/29 08:25:29;;;;;;;3.88;1.75;;;3.00;99.90;;;;;;5066165;28;20032;-43
2021/11/29 08:27:56;;;;;;;4.95;2.20;;;3.10;99.90;;;;;;5066390;28;20063;-42
2021/11/29 08:30:24;;;;;;;4.95;1.90;;;3.10;99.90;;;;;;5066670;28;20047;-44
2021/11/29 08:32:50;;;;;;;4.38;1.50;;;3.20;99.90;;;;;;5066495;28;20017;-44
2021/11/29 08:35:18;;;;;;;4.00;1.52;;;3.20;99.90;;;;;;5066729;28;20027;-44
2021/11/29 08:37:52;;;;;;;3.15;1.65;;;3.30;99.90;;;;;;5066608;28;20035;-42
2021/11/29 08:40:26;;;;;;;3.80;1.58;;;3.30;99.90;;;;;;5066506;28;20085;-43
2021/11/29 08:42:52;;;;;;;3.55;1.38;;;3.30;99.90;;;;;;5066462;28;20523;-44
2021/11/29 08:45:18;;;;;;;4.57;1.58;;;3.40;99.90;;;;;;5066221;28;20020;-42
2021/11/29 08:47:43;;;;;;;5.72;1.98;;;3.40;99.90;;;;;;5066809;28;20142;-43
2021/11/29 08:50:10;;;;;;;5.18;1.40;;;3.50;99.90;;;;;;5066432;28;20039;-44
2021/11/29 08:52:36;;;;;;;4.45;1.27;;;3.50;99.90;;;;;;5065585;28;20021;-43
2021/11/29 08:55:04;;;;;;;5.43;1.50;;;3.50;99.90;;;;;;5066224;28;20473;-43
2021/11/29 08:57:31;;;;;;;3.03;1.40;;;3.60;99.90;;;;;;5066377;28;20036;-43
2021/11/29 08:59:56;;;;;;;4.93;1.40;;;3.60;99.90;;;;;;5065351;28;20154;-43
2021/11/29 09:02:22;;;;;;;5.47;1.70;;;3.70;99.90;;;;;;5066969;28;20418;-45
2021/11/29 09:04:47;;;;;;;6.45;1.95;;;3.70;99.90;;;;;;5051302;28;20102;-43
2021/11/29 09:07:13;;;;;;;3.83;1.45;;;3.70;99.90;;;;;;5058883;28;20033;-44
2021/11/29 09:09:38;;;;;;;3.00;1.25;;;3.70;99.90;;;;;;5044080;28;20029;-43
2021/11/29 09:12:04;;;;;;;3.88;1.95;;;3.70;99.90;;;;;;5053689;28;20028;-42
2021/11/29 09:14:30;;;;;;;3.33;1.52;;;3.70;99.90;;;;;;5017652;28;20040;-43
2021/11/29 09:16:56;;;;;;;2.35;1.20;;;3.70;99.90;;;;;;5057625;28;20543;-44
2021/11/29 09:19:23;;;;;;;3.22;1.42;;;3.70;99.90;;;;;;5065106;28;20059;-44
2021/11/29 09:21:49;;;;;;;3.25;1.33;;;3.80;99.90;;;;;;5062319;28;20109;-45
2021/11/29 09:24:15;;;;;;;3.28;1.10;;;3.90;99.90;;;;;;5050790;28;20476;-43
2021/11/29 09:26:40;;;;;;;2.58;1.00;;;3.90;99.90;;;;;;5065399;28;20013;-43
2021/11/29 09:29:06;;;;;;;2.55;1.10;;;4.10;99.90;;;;;;5061237;28;20051;-42
2021/11/29 09:31:31;;;;;;;3.70;1.30;;;4.10;99.90;;;;;;5065111;28;20202;-42
2021/11/29 09:33:57;;;;;;;3.70;1.60;;;4.20;99.90;;;;;;5050060;28;20039;-42
2021/11/29 09:36:23;;;;;;;3.63;1.55;;;4.20;99.90;;;;;;5064739;28;20150;-44
2021/11/29 09:38:48;;;;;;;4.47;1.55;;;4.30;99.90;;;;;;5064741;28;20107;-43
2021/11/29 09:41:15;;;;;;;2.50;0.90;;;4.30;99.90;;;;;;5065219;28;20074;-43
2021/11/29 09:43:41;;;;;;;3.40;1.00;;;4.40;99.90;;;;;;5050971;28;20040;-44
2021/11/29 09:46:08;;;;;;;3.55;0.93;;;4.50;99.90;;;;;;5049603;28;20013;-43
2021/11/29 09:48:34;;;;;;;1.40;0.85;;;4.50;99.90;;;;;;5064158;28;20481;-45
2021/11/29 09:51:00;;;;;;;2.78;0.88;;;4.50;99.90;;;;;;5065397;28;20032;-44
2021/11/29 09:53:30;;;;;;;3.70;0.75;;;4.60;99.90;;;;;;5057552;28;20024;-44
2021/11/29 09:55:57;;;;;;;3.30;1.08;;;4.60;99.90;;;;;;5043626;28;20032;-43
2021/11/29 09:58:23;;;;;;;3.35;1.02;;;4.70;99.90;;;;;;5063658;28;20391;-43
2021/11/29 10:00:52;;;;;;;2.08;1.10;;;4.70;99.90;;;;;;5068343;28;20165;-43
2021/11/29 10:03:18;;;;;;;5.10;1.15;;;4.80;99.90;;;;;;5061720;28;20028;-44
2021/11/29 10:05:44;;;;;;;1.85;0.90;;;4.80;99.90;;;;;;5059521;28;20548;-43
2021/11/29 10:08:25;;;;;;;1.92;1.20;;;4.80;99.90;;;;;;5068500;28;20013;-42
2021/11/29 10:10:58;;;;;;;2.63;1.40;;;4.90;99.90;;;;;;5055279;28;20036;-44
2021/11/29 10:13:24;;;;;;;;;;;4.90;99.90;;;;;;5050015;28;20460;-44
2021/11/29 10:15:51;;;;;;;1.33;1.10;;;5.00;99.90;;;;;;5063400;28;19949;-44
2021/11/29 10:18:23;;;;;;;2.67;1.23;;;4.90;99.90;;;;;;5068100;28;20035;-44
2021/11/29 10:21:06;;;;;;;1.85;0.90;;;5.00;99.90;;;;;;5067945;28;20060;-43
2021/11/29 10:23:34;;;;;;;2.83;0.85;;;5.00;99.90;;;;;;5057466;28;20077;-44
2021/11/29 10:26:04;;;;;;;2.22;1.10;;;4.90;99.90;;;;;;5063089;28;20024;-43
2021/11/29 10:28:33;;;;;;;2.28;0.90;;;4.90;99.90;;;;;;5068347;28;20142;-43
2021/11/29 10:31:38;;;;;;;2.00;1.10;;;5.00;99.90;;;;;;5067474;28;20063;-43
2021/11/29 10:34:10;;;;;;;2.65;0.80;;;5.10;99.90;;;;;;5053427;28;20036;-44
2021/11/29 10:36:40;;;;;;;3.00;0.95;;;5.20;99.90;;;;;;5067725;28;20067;-43
2021/11/29 10:39:15;;;;;;;2.35;1.00;;;5.30;99.90;;;;;;5067352;28;20107;-42
2021/11/29 10:41:47;;;;;;;1.65;0.90;;;5.30;99.90;;;;;;5068712;28;20496;-43
2021/11/29 10:44:18;;;;;;;2.50;1.00;;;5.30;99.90;;;;;;5052517;28;20496;-43
2021/11/29 10:46:47;;;;;;;1.48;0.90;;;5.40;99.90;;;;;;5066725;28;20082;-43
2021/11/29 10:49:15;;;;;;;1.52;0.80;;;5.40;99.90;;;;;;5067978;28;20024;-44
2021/11/29 10:51:44;;;;;;;1.08;0.82;;;5.50;99.90;;;;;;5066952;28;20215;-42
2021/11/29 10:54:13;;;;;;;2.75;0.88;;;5.60;99.90;;;;;;5052804;28;20438;-43
2021/11/29 10:56:40;;;;;;;1.63;0.88;;;5.60;99.90;;;;;;5066741;28;20029;-43
2021/11/29 10:59:09;;;;;;;2.25;0.90;;;5.50;99.90;;;;;;5067078;28;20495;-43
2021/11/29 11:01:38;;;;;;;1.23;0.88;;;5.40;99.90;;;;;;5067636;28;20028;-43
2021/11/29 11:04:09;;;;;;;1.25;0.70;;;5.40;99.90;;;;;;5051791;28;20060;-43
2021/11/29 11:06:40;;;;;;;2.28;0.85;;;5.30;99.90;;;;;;5067436;28;20037;-42
2021/11/29 11:09:15;;;;;;;3.15;1.05;;;5.30;99.90;;;;;;5067693;28;20528;-44
2021/11/29 11:11:48;;;;;;;1.95;1.13;;;5.20;99.90;;;;;;5064911;28;20098;-43
2021/11/29 11:14:15;;;;;;;3.85;1.40;;;5.30;99.90;;;;;;5067309;28;20032;-42
2021/11/29 11:17:01;;;;;;;3.83;1.40;;;5.30;99.90;;;;;;5066852;28;20024;-43
2021/11/29 11:19:54;;;;;;;2.05;1.10;;;5.30;99.90;;;;;;5067441;28;20142;-43
2021/11/29 11:22:30;;;;;;;1.98;1.00;;;5.40;99.90;;;;;;5067113;28;20073;-43
2021/11/29 11:25:00;;;;;;;1.70;1.00;;;5.50;99.90;;;;;;5068764;28;20037;-43
2021/11/29 11:27:30;;;;;;;2.88;1.30;;;5.50;99.90;;;;;;5060260;28;20031;-43
2021/11/29 11:29:55;;;;;;;2.72;1.35;;;5.60;99.90;;;;;;5053634;28;20361;-42
2021/11/29 11:32:28;;;;;;;1.42;1.13;;;5.80;99.90;;;;;;5059382;28;20041;-44
2021/11/29 11:35:09;;;;;;;1.98;1.00;;;5.90;99.90;;;;;;5065831;28;20079;-43
2021/11/29 11:37:41;;;;;;;2.85;1.30;;;6.10;99.90;;;;;;5063673;28;20048;-44
2021/11/29 11:40:12;;;;;;;1.10;1.00;;;6.20;99.90;;;;;;5052016;28;20036;-42
2021/11/29 11:42:39;;;;;;;3.45;1.25;;;6.30;99.90;;;;;;5065821;28;20103;-43
2021/11/29 11:45:11;;;;;;;2.75;1.20;;;6.40;99.90;;;;;;5066651;28;20047;-41
2021/11/29 11:47:37;;;;;;;1.77;1.40;;;6.30;99.90;;;;;;5066058;28;20031;-43
2021/11/29 11:50:06;;;;;;;1.50;1.38;;;6.30;99.90;;;;;;5050952;28;20386;-43
2021/11/29 11:52:32;;;;;;;1.85;1.27;;;6.20;99.90;;;;;;5068232;28;20107;-44
2021/11/29 11:55:00;;;;;;;2.28;1.52;;;6.30;99.90;;;;;;5067371;28;20119;-44
2021/11/29 11:57:27;;;;;;;1.70;1.10;;;6.20;99.90;;;;;;5066346;28;20037;-43
2021/11/29 12:00:18;;;;;;;2.40;1.10;;;6.30;99.90;;;;;;5055277;28;20028;-43
2021/11/29 12:02:45;;;;;;;2.63;1.45;;;6.30;99.90;;;;;;5065334;28;20047;-43
2021/11/29 12:05:24;;;;;;;2.10;0.70;;;6.40;99.90;;;;;;5066608;28;20544;-44
2021/11/29 12:07:51;;;;;;;1.80;0.88;;;6.50;99.90;;;;;;5066612;28;20115;-42
2021/11/29 12:10:39;;;;;;;1.77;0.80;;;6.50;99.90;;;;;;5050257;28;20051;-43
2021/11/29 12:13:12;;;;;;;1.05;0.80;;;6.50;99.90;;;;;;5066076;28;20107;-44
2021/11/29 12:15:49;;;;;;;3.78;1.10;;;6.60;99.90;;;;;;5045679;28;20072;-43
2021/11/29 12:18:41;;;;;;;3.38;1.23;;;6.60;99.90;;;;;;5062473;28;20376;-44
2021/11/29 12:21:17;;;;;;;2.10;1.35;;;6.70;99.90;;;;;;5030424;28;20850;-44
2021/11/29 12:24:05;;;;;;;1.98;1.23;;;6.70;99.90;;;;;;5063976;28;20043;-43
2021/11/29 12:26:46;;;;;;;1.35;1.13;;;6.80;99.90;;;;;;5066730;28;20021;-42
2021/11/29 12:29:20;;;;;;;2.08;1.23;;;6.80;99.90;;;;;;5059373;28;20488;-43
2021/11/29 12:32:10;;;;;;;3.38;1.60;;;6.80;99.90;;;;;;5055954;28;20039;-44
2021/11/29 12:34:49;;;;;;;3.10;1.73;;;6.70;99.90;;;;;;5066275;28;20028;-43
2021/11/29 12:37:23;;;;;;;2.53;1.40;;;6.60;99.90;;;;;;5065427;28;20046;-43
2021/11/29 12:39:57;;;;;;;2.05;1.58;;;6.50;99.90;;;;;;5055707;28;20436;-44
2021/11/29 12:42:26;;;;;;;2.80;1.52;;;6.50;99.90;;;;;;5065294;28;20480;-44
2021/11/29 12:44:57;;;;;;;2.33;1.50;;;6.50;99.90;;;;;;5065129;28;20487;-44
2021/11/29 12:47:47;;;;;;;3.67;1.77;;;6.50;99.90;;;;;;5065701;28;20048;-44
2021/11/29 12:50:38;;;;;;;2.42;1.42;;;6.50;99.90;;;;;;5049882;28;20020;-43
2021/11/29 12:53:10;;;;;;;1.75;1.20;;;6.60;99.90;;;;;;5064814;28;20028;-43
2021/11/29 12:55:37;;;;;;;1.42;1.25;;;6.70;99.90;;;;;;5057841;28;20487;-43
2021/11/29 12:58:17;;;;;;;2.88;1.60;;;6.70;99.90;;;;;;5065488;28;20135;-43
2021/11/29 13:00:46;;;;;;;1.70;1.40;;;6.70;99.90;;;;;;5050815;28;20030;-44